WetterOnline ( http://www.wetteronline.de )

Wetter aktuell Oschatz

Aktuelles Wetter: Oschatz (152m)

6-stündlich | Neueste Meldungen
Ortszeit Temperatur Wetter
Di, 11.12. 1:00 3.0° C Regen
Mo, 10.12. 19:00 3.1° C leichter Regen
Mo, 10.12. 13:00 4.9° C bedeckt
Mo, 10.12. 7:00 3.5° C leichter Regen
Mo, 10.12. 1:00 5.8° C bewölkt
So, 09.12. 19:00 6.2° C bewölkt
So, 09.12. 13:00 8.8° C bewölkt
So, 09.12. 7:00 7.2° C bedeckt
Ortszeit Temperatur Wetter
Di, 11.12. 1:30 2.6° C bewölkt
Di, 11.12. 1:10 2.9° C bewölkt
Di, 11.12. 1:00 3.0° C Regen
Di, 11.12. 0:40 2.9° C leichter Regen
Di, 11.12. 0:30 2.6° C Sprühregen
Di, 11.12. 0:20 2.6° C Sprühregen
Di, 11.12. 0:00 2.8° C bedeckt
Mo, 10.12. 23:30 3.0° C bewölkt
Mo, 10.12. 23:00 3.0° C leichter Regen
Mo, 10.12. 22:30 2.8° C bedeckt
Ortszeit Relative Feuchte Sichtweite
Di, 11.12. 1:00 89% 40 km
Mo, 10.12. 19:00 82% 12 km
Mo, 10.12. 13:00 75% 60 km
Mo, 10.12. 7:00 89% 7 km
Mo, 10.12. 1:00 73% 40 km
So, 09.12. 19:00 82% 70 km
So, 09.12. 13:00 70% 70 km
So, 09.12. 7:00 83% 70 km
Ortszeit Relative Feuchte Sichtweite
Di, 11.12. 1:30 89% 60 km
Di, 11.12. 1:10 89% -
Di, 11.12. 1:00 89% 40 km
Di, 11.12. 0:40 90% -
Di, 11.12. 0:30 91% 7 km
Di, 11.12. 0:20 91% -
Di, 11.12. 0:00 89% 35 km
Mo, 10.12. 23:30 87% 40 km
Mo, 10.12. 23:00 86% 35 km
Mo, 10.12. 22:30 87% 35 km
Ortszeit Niederschlagsmenge Niederschlagsart
Di, 11.12. 1:00 2 l/m2 in 6 Std. Regen
Mo, 10.12. 19:00 1 l/m2 in 12 Std. Regen
Mo, 10.12. 13:00 0.8 l/m2 in 6 Std. Regen
Mo, 10.12. 7:00 4 l/m2 in 12 Std. Regen
Mo, 10.12. 1:00 4 l/m2 in 6 Std. Regen
So, 09.12. 19:00 1 l/m2 in 12 Std. Regen
So, 09.12. 13:00 0.2 l/m2 in 6 Std. Regen
So, 09.12. 7:00 4 l/m2 in 12 Std. Regen
Ortszeit Niederschlagsmenge Niederschlagsart
Di, 11.12. 1:30 0.0 l/m2 in 1 Std. -
Di, 11.12. 1:10 keine Meldung -
Di, 11.12. 1:00 0.7 l/m2 in 1 Std. Regen
Di, 11.12. 0:40 keine Meldung -
Di, 11.12. 0:30 0.5 l/m2 in 1 Std. -
Di, 11.12. 0:20 keine Meldung -
Di, 11.12. 0:00 0.4 l/m2 in 1 Std. Regen
Mo, 10.12. 23:30 0.2 l/m2 in 1 Std. Schneeregen
Mo, 10.12. 23:00 0.1 l/m2 in 1 Std. Regen
Mo, 10.12. 22:30 0.1 l/m2 in 1 Std. Schneeregen
Ortszeit Stärke Spitze Richtung
km/h Bft. km/h Grad Sektor
Di, 11.12. 1:00 30 5 50 270° W
Mo, 10.12. 19:00 26 4 54 260° W
Mo, 10.12. 13:00 28 4 54 270° W
Mo, 10.12. 7:00 26 4 57 270° W
Mo, 10.12. 1:00 36 5 61 280° W
So, 09.12. 19:00 32 5 65 260° W
So, 09.12. 13:00 39 6 61 250° W
So, 09.12. 7:00 31 5 63 250° W
Ortszeit Stärke Spitze Richtung
km/h Bft. km/h Grad Sektor
Di, 11.12. 1:30 28 4 44 280° W
Di, 11.12. 1:10 30 5 - 280° W
Di, 11.12. 1:00 30 5 50 270° W
Di, 11.12. 0:40 26 4 - 270° W
Di, 11.12. 0:30 24 4 41 270° W
Di, 11.12. 0:20 24 4 - 270° W
Di, 11.12. 0:00 29 5 50 270° W
Mo, 10.12. 23:30 32 5 50 260° W
Mo, 10.12. 23:00 32 5 50 260° W
Mo, 10.12. 22:30 25 4 40 250° W
Ortszeit Untergrenze Bedeckung Gattung
total tief tief mittel hoch
Di, 11.12. 1:00 360 m 8/8 8/8 - - -
Mo, 10.12. 19:00 720 m 7/8 7/8 - - -
Mo, 10.12. 13:00 750 m 8/8 8/8 - - -
Mo, 10.12. 7:00 510 m 7/8 7/8 - - -
Mo, 10.12. 1:00 900 m 7/8 7/8 - - -
So, 09.12. 19:00 900 m 8/8 5/8 - - -
So, 09.12. 13:00 930 m 7/8 7/8 - - -
So, 09.12. 7:00 630 m 8/8 8/8 - - -
Ortszeit Bedeckungsgrad in Achtel und Wolkenuntergrenze
Di, 11.12. 1:30 3(450m) 7(690m) 8(3000m)
Di, 11.12. 1:10 2(330m) 7(690m) 8(3300m)
Di, 11.12. 1:00 4(360m) 7(600m) 8(1500m)
Di, 11.12. 0:40 4(300m) 6(450m) 7(690m)
Di, 11.12. 0:30 7(300m) 8(540m)
Di, 11.12. 0:20 7(300m) 8(540m)
Di, 11.12. 0:00 4(360m) 7(540m) 8(900m)
Mo, 10.12. 23:30 7(570m) 7(810m) 8(930m)
Mo, 10.12. 23:00 6(570m) 7(1500m) 7(3600m)
Mo, 10.12. 22:30 8(570m) 8(1500m) 8(3600m)
Ortszeit Luftdruck NN (hPa) Tendenz (hPa in 3 Std.)
Di, 11.12. 1:00 1013 - 0,4
Mo, 10.12. 19:00 1014 - 0,1
Mo, 10.12. 13:00 1014 + 0,2
Mo, 10.12. 7:00 1011 + 2,5
Mo, 10.12. 1:00 1007 + 2,9
So, 09.12. 19:00 1000 + 2,3
So, 09.12. 13:00 995 + 0,3
So, 09.12. 7:00 993 + 0,7
Ortszeit Luftdruck NN (hPa) Tendenz (hPa in 3 Std.)
Di, 11.12. 1:30 1013 0,0
Di, 11.12. 1:10 1013 keine Meldung
Di, 11.12. 1:00 1013 - 0,4
Di, 11.12. 0:40 1013 keine Meldung
Di, 11.12. 0:30 1013 - 0,4
Di, 11.12. 0:20 1013 keine Meldung
Di, 11.12. 0:00 1013 - 0,6
Mo, 10.12. 23:30 1013 - 0,8
Mo, 10.12. 23:00 1013 - 0,4
Mo, 10.12. 22:30 1013 - 0,7
Ortszeit Schneehöhe (cm)
Di, 11.12. 1:00 0
Mo, 10.12. 19:00 0
Mo, 10.12. 13:00 0
Mo, 10.12. 7:00 0
Mo, 10.12. 1:00 0
So, 09.12. 19:00 0
So, 09.12. 13:00 0
So, 09.12. 7:00 0
Ortszeit Schneehöhe (cm)
Di, 11.12. 1:30 0
Di, 11.12. 1:10 0
Di, 11.12. 1:00 0
Di, 11.12. 0:40 0
Di, 11.12. 0:30 0
Di, 11.12. 0:20 0
Di, 11.12. 0:00 0
Mo, 10.12. 23:30 0
Mo, 10.12. 23:00 0
Mo, 10.12. 22:30 0
Link zu dieser Seite / Seite empfehlen

Das Wetter in ...